Time;durP1;ratioP1;P1;durP2;ratioP2;P2;SDS_P1;SDS_P2;PMS_P1;PMS_P2;Temp;Humidity;BMP_temperature;BMP_pressure;BME280_temperature;BME280_humidity;BME280_pressure;Samples;Min_cycle;Max_cycle;Signal;HPM_P1;HPM_P2
2022/04/24 00:01:30;;;;;;;2.92;2.25;;;16.40;44.80;;;;;;5112161;28;20047;-65
2022/04/24 00:03:56;;;;;;;2.22;1.98;;;16.40;44.90;;;;;;5111943;28;20047;-68
2022/04/24 00:06:22;;;;;;;2.70;2.50;;;16.40;44.90;;;;;;5111988;28;20065;-67
2022/04/24 00:08:51;;;;;;;3.45;1.95;;;16.40;44.90;;;;;;5113103;28;20039;-64
2022/04/24 00:11:17;;;;;;;3.00;2.22;;;16.40;45.00;;;;;;5112064;28;20394;-67
2022/04/24 00:13:43;;;;;;;2.83;2.50;;;16.40;45.00;;;;;;5113192;28;20375;-68
2022/04/24 00:16:09;;;;;;;2.67;2.17;;;16.40;45.10;;;;;;5111644;28;20066;-68
2022/04/24 00:18:37;;;;;;;3.05;2.58;;;16.30;45.10;;;;;;5111601;28;20031;-68
2022/04/24 00:21:04;;;;;;;2.28;2.05;;;16.30;45.10;;;;;;5111775;28;20081;-69
2022/04/24 00:23:30;;;;;;;2.78;2.33;;;16.30;45.10;;;;;;5111553;28;20079;-69
2022/04/24 00:25:56;;;;;;;2.22;2.03;;;16.30;45.10;;;;;;5111792;28;20361;-68
2022/04/24 00:28:25;;;;;;;2.40;2.15;;;16.30;45.10;;;;;;5111437;28;20081;-68
2022/04/24 00:30:50;;;;;;;2.20;2.00;;;16.30;45.20;;;;;;5111262;28;20055;-64
2022/04/24 00:33:16;;;;;;;2.55;2.17;;;16.30;45.20;;;;;;5111422;28;20039;-68
2022/04/24 00:35:42;;;;;;;3.22;2.05;;;16.30;45.20;;;;;;5112495;28;20048;-67
2022/04/24 00:38:08;;;;;;;2.20;2.00;;;16.20;45.90;;;;;;5111401;28;20195;-69
2022/04/24 00:40:34;;;;;;;2.42;2.22;;;16.20;45.20;;;;;;5111240;28;20039;-68
2022/04/24 00:42:59;;;;;;;4.22;2.17;;;16.20;45.20;;;;;;5111535;28;20043;-67
2022/04/24 00:45:25;;;;;;;2.17;1.98;;;16.20;45.30;;;;;;5112527;28;20039;-65
2022/04/24 00:47:50;;;;;;;2.53;2.17;;;16.20;45.30;;;;;;5111391;28;20067;-67
2022/04/24 00:50:19;;;;;;;2.60;2.03;;;16.20;46.10;;;;;;5111229;28;20048;-67
2022/04/24 00:52:46;;;;;;;4.00;1.90;;;16.20;45.40;;;;;;5111119;28;20075;-68
2022/04/24 00:55:11;;;;;;;3.00;1.85;;;16.20;45.40;;;;;;5111252;28;20143;-68
2022/04/24 00:57:40;;;;;;;3.33;2.20;;;16.20;45.50;;;;;;5112301;28;20492;-72
2022/04/24 01:00:07;;;;;;;3.10;1.95;;;16.10;45.40;;;;;;5110805;28;20052;-67
2022/04/24 01:02:33;;;;;;;2.72;2.53;;;16.10;45.40;;;;;;5128111;28;20520;-68
2022/04/24 01:04:59;;;;;;;2.05;1.85;;;16.10;45.50;;;;;;5111197;28;20055;-70
2022/04/24 01:07:25;;;;;;;2.05;1.85;;;16.10;45.50;;;;;;5112255;28;20131;-64
2022/04/24 01:09:50;;;;;;;1.90;1.60;;;16.10;45.50;;;;;;5112222;28;20071;-68
2022/04/24 01:12:16;;;;;;;1.90;1.70;;;16.10;45.50;;;;;;5111101;28;20040;-68
2022/04/24 01:14:41;;;;;;;2.60;1.40;;;16.10;45.50;;;;;;5110977;28;20039;-67
2022/04/24 01:17:07;;;;;;;2.67;1.85;;;16.10;45.50;;;;;;5111158;28;20043;-67
2022/04/24 01:19:33;;;;;;;2.35;1.80;;;16.00;45.50;;;;;;5128170;28;20067;-66
2022/04/24 01:21:59;;;;;;;2.53;1.65;;;16.00;45.50;;;;;;5112114;28;20044;-68
2022/04/24 01:24:27;;;;;;;2.28;2.08;;;16.00;45.50;;;;;;5127950;28;20040;-66
2022/04/24 01:26:53;;;;;;;2.85;2.00;;;16.00;45.60;;;;;;5112150;28;20079;-69
2022/04/24 01:29:19;;;;;;;1.92;1.80;;;16.00;45.60;;;;;;5112019;28;20075;-67
2022/04/24 01:31:48;;;;;;;2.60;2.22;;;16.00;45.70;;;;;;5112106;28;20036;-64
2022/04/24 01:34:15;;;;;;;1.80;1.60;;;16.00;45.60;;;;;;5110672;28;20036;-67
2022/04/24 01:36:41;;;;;;;2.15;1.75;;;16.00;45.70;;;;;;5110737;28;20075;-68
2022/04/24 01:39:07;;;;;;;2.15;1.80;;;16.00;45.70;;;;;;5110843;28;20067;-65
2022/04/24 01:41:33;;;;;;;2.05;1.85;;;16.00;45.70;;;;;;5110723;28;20031;-67
2022/04/24 01:43:59;;;;;;;1.98;1.63;;;15.90;45.60;;;;;;5110906;28;20118;-67
2022/04/24 01:46:25;;;;;;;2.35;1.77;;;15.90;45.70;;;;;;5110711;28;20139;-68
2022/04/24 01:48:51;;;;;;;1.90;1.35;;;15.90;45.70;;;;;;5111876;28;20036;-68
2022/04/24 01:51:17;;;;;;;2.05;1.90;;;15.90;45.70;;;;;;5110565;28;20047;-63
2022/04/24 01:53:44;;;;;;;2.30;2.10;;;15.90;45.70;;;;;;5110745;28;20168;-67
2022/04/24 01:56:12;;;;;;;2.78;1.95;;;15.90;45.70;;;;;;5111187;28;20043;-67
2022/04/24 01:58:38;;;;;;;1.98;1.50;;;15.90;45.70;;;;;;5112232;28;20044;-68
2022/04/24 02:01:05;;;;;;;1.77;1.45;;;15.90;45.70;;;;;;5110293;28;20040;-67
2022/04/24 02:03:31;;;;;;;2.55;1.80;;;15.90;45.80;;;;;;5110408;28;20067;-65
2022/04/24 02:05:57;;;;;;;2.22;1.83;;;15.90;46.50;;;;;;5110710;28;20050;-66
2022/04/24 02:08:23;;;;;;;1.98;1.40;;;15.90;45.80;;;;;;5113980;28;20036;-67
2022/04/24 02:10:49;;;;;;;2.22;1.98;;;15.90;45.80;;;;;;5114047;28;20487;-67
2022/04/24 02:13:15;;;;;;;1.92;1.52;;;15.80;45.70;;;;;;5114448;28;20057;-67
2022/04/24 02:15:42;;;;;;;1.98;1.58;;;15.80;45.80;;;;;;5114098;28;20040;-63
2022/04/24 02:18:08;;;;;;;1.75;1.65;;;15.80;45.80;;;;;;5114052;28;20043;-64
2022/04/24 02:20:34;;;;;;;1.80;1.50;;;15.80;45.80;;;;;;5113929;28;20044;-67
2022/04/24 02:23:00;;;;;;;1.50;1.33;;;15.80;45.80;;;;;;5115258;28;20256;-67
2022/04/24 02:25:27;;;;;;;2.10;1.58;;;15.80;45.80;;;;;;5113886;28;20086;-68
2022/04/24 02:27:54;;;;;;;1.90;1.60;;;15.80;45.80;;;;;;5114060;28;20046;-62
2022/04/24 02:30:22;;;;;;;1.70;1.50;;;15.80;45.80;;;;;;5114069;28;20052;-68
2022/04/24 02:32:48;;;;;;;1.65;1.48;;;15.80;45.90;;;;;;5113708;28;20123;-67
2022/04/24 02:35:14;;;;;;;2.22;1.33;;;15.80;45.90;;;;;;5113813;28;20126;-63
2022/04/24 02:37:39;;;;;;;1.52;1.40;;;15.80;45.90;;;;;;5113644;28;20123;-67
2022/04/24 02:40:09;;;;;;;1.27;0.93;;;15.80;45.90;;;;;;5113505;28;20096;-64
2022/04/24 02:42:36;;;;;;;2.55;1.50;;;15.70;45.90;;;;;;5113614;28;20047;-67
2022/04/24 02:45:04;;;;;;;1.58;1.48;;;15.70;45.90;;;;;;5113674;28;20039;-67
2022/04/24 02:47:29;;;;;;;1.58;1.42;;;15.70;45.90;;;;;;5113727;28;20387;-67
2022/04/24 02:49:55;;;;;;;3.03;1.13;;;15.70;45.90;;;;;;5113678;28;20039;-66
2022/04/24 02:52:20;;;;;;;1.50;1.23;;;15.70;45.90;;;;;;5113306;28;20050;-67
2022/04/24 02:54:46;;;;;;;2.00;1.40;;;15.70;45.90;;;;;;5113284;28;20044;-67
2022/04/24 02:57:12;;;;;;;1.40;1.30;;;15.70;46.00;;;;;;5114595;27;20032;-66
2022/04/24 02:59:42;;;;;;;2.00;1.80;;;15.70;45.90;;;;;;5113018;28;20411;-67
2022/04/24 03:02:12;;;;;;;1.30;1.20;;;15.70;45.90;;;;;;5114388;28;20039;-67
2022/04/24 03:04:39;;;;;;;1.50;1.40;;;15.60;45.90;;;;;;5113354;28;20505;-66
2022/04/24 03:07:06;;;;;;;2.15;1.63;;;15.60;45.90;;;;;;5112970;28;20080;-67
2022/04/24 03:09:32;;;;;;;2.10;1.63;;;15.70;46.00;;;;;;5113209;28;20043;-68
2022/04/24 03:11:58;;;;;;;2.42;1.42;;;15.70;46.00;;;;;;5114351;28;20441;-67
2022/04/24 03:14:23;;;;;;;1.85;1.48;;;15.60;46.00;;;;;;5096238;28;20044;-69
2022/04/24 03:16:49;;;;;;;2.03;1.27;;;15.60;46.00;;;;;;5113002;28;20250;-67
2022/04/24 03:19:15;;;;;;;1.58;1.38;;;15.60;46.00;;;;;;5114030;28;20039;-63
2022/04/24 03:21:40;;;;;;;3.17;1.42;;;15.60;46.00;;;;;;5113900;28;20096;-64
2022/04/24 03:24:06;;;;;;;1.70;1.40;;;15.50;45.90;;;;;;5112811;28;20123;-67
2022/04/24 03:26:32;;;;;;;2.58;1.65;;;15.60;46.00;;;;;;5112587;28;20036;-67
2022/04/24 03:28:57;;;;;;;2.03;1.50;;;15.50;46.00;;;;;;5112985;28;20074;-67
2022/04/24 03:31:24;;;;;;;2.10;1.42;;;15.50;45.90;;;;;;5112548;28;20497;-69
2022/04/24 03:33:52;;;;;;;1.88;1.58;;;15.50;45.90;;;;;;5114224;28;20085;-68
2022/04/24 03:36:18;;;;;;;2.03;1.50;;;15.50;45.90;;;;;;5112750;28;20043;-68
2022/04/24 03:38:44;;;;;;;1.73;1.63;;;15.50;46.00;;;;;;5113636;28;20047;-68
2022/04/24 03:41:10;;;;;;;2.20;1.55;;;15.50;46.00;;;;;;5112475;28;20047;-67
2022/04/24 03:43:35;;;;;;;1.30;1.17;;;15.50;46.00;;;;;;5113830;28;20084;-67
2022/04/24 03:46:01;;;;;;;2.05;1.83;;;15.50;46.00;;;;;;5112273;28;20104;-68
2022/04/24 03:48:27;;;;;;;2.00;1.75;;;15.50;46.70;;;;;;5112596;28;20122;-69
2022/04/24 03:50:52;;;;;;;1.85;1.30;;;15.50;46.00;;;;;;5112219;28;20043;-67
2022/04/24 03:53:18;;;;;;;1.60;1.50;;;15.40;45.90;;;;;;5112311;28;20039;-67
2022/04/24 03:55:46;;;;;;;1.77;1.67;;;15.40;46.00;;;;;;5112391;28;20372;-67
2022/04/24 03:58:12;;;;;;;1.23;1.13;;;15.40;46.00;;;;;;5112356;28;20164;-65
2022/04/24 04:00:37;;;;;;;2.35;1.67;;;15.40;46.00;;;;;;5110899;28;20512;-68
2022/04/24 04:03:03;;;;;;;1.83;1.63;;;15.40;46.00;;;;;;5112228;28;20108;-67
2022/04/24 04:05:29;;;;;;;2.05;1.70;;;15.40;45.90;;;;;;5112229;28;20040;-67
2022/04/24 04:07:58;;;;;;;2.03;1.60;;;15.40;46.00;;;;;;5111750;28;20032;-67
2022/04/24 04:10:24;;;;;;;2.10;1.50;;;15.40;46.00;;;;;;5112073;28;20035;-67
2022/04/24 04:12:52;;;;;;;1.52;1.42;;;15.40;46.00;;;;;;5111788;28;20050;-69
2022/04/24 04:15:18;;;;;;;2.10;1.77;;;15.40;45.90;;;;;;5112072;28;20051;-67
2022/04/24 04:17:44;;;;;;;2.35;1.45;;;15.40;46.00;;;;;;5112959;28;20483;-67
2022/04/24 04:20:11;;;;;;;2.17;1.38;;;15.30;45.90;;;;;;5094702;28;20213;-67
2022/04/24 04:22:48;;;;;;;2.00;1.52;;;15.30;45.90;;;;;;5111751;28;20505;-67
2022/04/24 04:25:14;;;;;;;2.92;1.42;;;15.30;46.00;;;;;;5111693;28;20043;-67
2022/04/24 04:27:39;;;;;;;1.90;1.58;;;15.30;46.00;;;;;;5112281;28;20071;-67
2022/04/24 04:30:06;;;;;;;1.63;1.25;;;15.30;46.70;;;;;;5111490;28;20300;-67
2022/04/24 04:32:31;;;;;;;2.25;1.50;;;15.30;46.00;;;;;;5112744;28;20111;-67
2022/04/24 04:34:57;;;;;;;2.17;1.70;;;15.30;46.00;;;;;;5112660;28;20114;-67
2022/04/24 04:37:22;;;;;;;2.20;1.60;;;15.20;45.90;;;;;;5111760;28;20035;-67
2022/04/24 04:39:48;;;;;;;2.15;1.83;;;15.30;46.00;;;;;;5112757;28;20395;-69
2022/04/24 04:42:14;;;;;;;1.65;1.23;;;15.30;46.00;;;;;;5111402;28;20123;-67
2022/04/24 04:44:39;;;;;;;1.98;1.33;;;15.30;46.00;;;;;;5111777;28;20039;-67
2022/04/24 04:47:06;;;;;;;2.38;1.70;;;15.20;45.90;;;;;;5111341;28;20520;-67
2022/04/24 04:49:32;;;;;;;2.38;1.23;;;15.20;45.90;;;;;;5112435;28;20103;-67
2022/04/24 04:51:57;;;;;;;1.45;1.25;;;15.20;46.00;;;;;;5111449;28;20047;-63
2022/04/24 04:54:23;;;;;;;1.65;1.55;;;15.20;46.00;;;;;;5112609;28;20050;-67
2022/04/24 04:56:49;;;;;;;1.98;1.42;;;15.20;46.00;;;;;;5112447;28;20046;-68
2022/04/24 04:59:14;;;;;;;4.10;1.95;;;15.20;46.70;;;;;;5110733;28;20074;-69
2022/04/24 05:01:40;;;;;;;1.80;1.50;;;15.20;45.90;;;;;;5112341;28;20087;-67
2022/04/24 05:04:05;;;;;;;2.00;1.80;;;15.20;46.00;;;;;;5112355;28;20031;-67
2022/04/24 05:06:32;;;;;;;2.28;1.30;;;15.20;46.00;;;;;;5112161;28;20032;-63
2022/04/24 05:08:57;;;;;;;1.60;1.50;;;15.20;46.00;;;;;;5111038;28;20039;-66
2022/04/24 05:11:23;;;;;;;2.08;1.70;;;15.20;45.90;;;;;;5112204;28;20111;-67
2022/04/24 05:13:48;;;;;;;2.20;1.80;;;15.10;45.90;;;;;;5111260;28;20380;-64
2022/04/24 05:16:14;;;;;;;1.95;1.85;;;15.20;45.90;;;;;;5112237;28;20398;-67
2022/04/24 05:18:40;;;;;;;2.33;1.48;;;15.20;46.00;;;;;;5111271;28;20047;-63
2022/04/24 05:21:05;;;;;;;2.95;1.63;;;15.20;45.90;;;;;;5110980;28;20039;-63
2022/04/24 05:23:31;;;;;;;1.30;1.10;;;15.10;45.80;;;;;;5110822;28;20044;-67
2022/04/24 05:25:58;;;;;;;1.75;1.27;;;15.20;45.90;;;;;;5111099;28;20047;-67
2022/04/24 05:28:23;;;;;;;2.05;1.38;;;15.20;45.90;;;;;;5112166;28;20039;-67
2022/04/24 05:30:52;;;;;;;2.72;2.17;;;15.10;45.80;;;;;;5112149;28;20062;-67
2022/04/24 05:33:18;;;;;;;1.98;1.55;;;15.10;45.80;;;;;;5112131;28;20051;-68
2022/04/24 05:35:44;;;;;;;2.10;1.40;;;15.10;45.90;;;;;;5111923;28;20108;-67
2022/04/24 05:38:11;;;;;;;1.88;1.63;;;15.10;45.90;;;;;;5112048;28;20081;-64
2022/04/24 05:40:37;;;;;;;1.65;1.25;;;15.10;45.80;;;;;;5112120;28;20063;-67
2022/04/24 05:43:06;;;;;;;1.80;1.60;;;15.10;45.90;;;;;;5113916;28;20039;-63
2022/04/24 05:45:32;;;;;;;1.60;1.38;;;15.10;45.80;;;;;;5114618;28;20070;-66
2022/04/24 05:47:58;;;;;;;1.60;1.45;;;15.10;45.80;;;;;;5114874;28;20044;-67
2022/04/24 05:50:24;;;;;;;1.40;1.30;;;15.10;45.80;;;;;;5114854;28;20058;-64
2022/04/24 05:52:54;;;;;;;2.28;1.25;;;15.20;45.80;;;;;;5114651;28;20095;-67
2022/04/24 05:55:19;;;;;;;1.65;1.45;;;15.20;45.90;;;;;;5114783;28;20242;-68
2022/04/24 05:57:45;;;;;;;2.15;1.55;;;15.10;45.80;;;;;;5114384;28;20035;-66
2022/04/24 06:00:12;;;;;;;1.45;1.25;;;15.20;45.80;;;;;;5114117;28;20047;-67
2022/04/24 06:02:39;;;;;;;2.58;1.40;;;15.20;45.80;;;;;;5115582;28;20031;-67
2022/04/24 06:05:06;;;;;;;2.03;1.50;;;15.20;45.80;;;;;;5114588;28;20047;-66
2022/04/24 06:07:31;;;;;;;2.45;1.55;;;15.20;45.80;;;;;;5114407;28;20032;-67
2022/04/24 06:09:57;;;;;;;1.83;1.67;;;15.20;45.70;;;;;;5115628;28;20394;-66
2022/04/24 06:12:23;;;;;;;2.72;2.10;;;15.20;45.70;;;;;;5114383;28;20047;-67
2022/04/24 06:14:48;;;;;;;2.03;1.40;;;15.20;45.70;;;;;;5114521;28;20383;-67
2022/04/24 06:17:14;;;;;;;2.15;1.10;;;15.20;45.70;;;;;;5114249;28;20047;-67
2022/04/24 06:19:42;;;;;;;1.50;1.40;;;15.20;45.70;;;;;;5114167;28;20043;-67
2022/04/24 06:22:08;;;;;;;2.03;1.83;;;15.30;45.70;;;;;;5114020;28;20108;-67
2022/04/24 06:24:33;;;;;;;1.98;1.48;;;15.20;45.60;;;;;;5114233;28;20077;-67
2022/04/24 06:26:59;;;;;;;1.90;1.70;;;15.30;45.60;;;;;;5115414;28;20111;-67
2022/04/24 06:29:28;;;;;;;2.20;1.50;;;15.30;45.60;;;;;;5115090;28;20096;-67
2022/04/24 06:31:53;;;;;;;2.40;1.63;;;15.30;45.70;;;;;;5114095;28;20538;-67
2022/04/24 06:34:19;;;;;;;1.60;1.25;;;15.30;45.60;;;;;;5113930;28;20106;-66
2022/04/24 06:36:45;;;;;;;2.08;1.40;;;15.30;45.60;;;;;;5113279;28;20100;-65
2022/04/24 06:39:10;;;;;;;1.30;1.20;;;15.30;45.60;;;;;;5113451;28;20491;-69
2022/04/24 06:41:39;;;;;;;2.25;1.40;;;15.30;45.50;;;;;;5113660;28;20044;-67
2022/04/24 06:44:05;;;;;;;1.95;1.60;;;15.30;45.50;;;;;;5115015;28;20039;-63
2022/04/24 06:46:30;;;;;;;1.83;1.30;;;15.40;45.50;;;;;;5115709;28;20040;-68
2022/04/24 06:48:56;;;;;;;1.55;1.27;;;15.40;45.50;;;;;;5114774;28;20503;-63
2022/04/24 06:51:21;;;;;;;2.08;1.25;;;15.40;45.40;;;;;;5114716;28;20071;-68
2022/04/24 06:53:47;;;;;;;1.25;1.13;;;15.40;45.40;;;;;;5113424;28;20040;-68
2022/04/24 06:56:13;;;;;;;2.30;1.50;;;15.40;45.40;;;;;;5113261;28;20034;-68
2022/04/24 06:58:38;;;;;;;1.50;1.10;;;15.40;45.30;;;;;;5096375;27;20040;-67
2022/04/24 07:01:06;;;;;;;2.78;1.70;;;15.50;45.40;;;;;;5116453;27;20039;-67
2022/04/24 07:03:31;;;;;;;1.70;1.55;;;15.50;45.40;;;;;;5116450;27;20092;-64
2022/04/24 07:06:01;;;;;;;2.25;1.55;;;15.50;45.40;;;;;;5116571;27;20027;-68
2022/04/24 07:08:29;;;;;;;1.55;1.13;;;15.50;45.40;;;;;;5134712;27;20035;-67
2022/04/24 07:10:55;;;;;;;2.20;1.48;;;15.50;45.30;;;;;;5135220;27;20561;-67
2022/04/24 07:13:24;;;;;;;3.30;1.85;;;15.60;45.40;;;;;;5134915;27;20131;-67
2022/04/24 07:15:50;;;;;;;3.13;1.50;;;15.60;45.40;;;;;;5116449;27;20111;-67
2022/04/24 07:18:16;;;;;;;3.33;1.60;;;15.60;45.40;;;;;;5134672;27;20043;-69
2022/04/24 07:20:42;;;;;;;1.70;1.20;;;15.60;45.40;;;;;;5115957;27;20382;-69
2022/04/24 07:23:11;;;;;;;1.98;1.33;;;15.60;45.30;;;;;;5116341;27;20440;-69
2022/04/24 07:25:41;;;;;;;1.63;1.23;;;15.70;45.20;;;;;;5134431;27;20035;-69
2022/04/24 07:28:08;;;;;;;2.05;1.65;;;15.70;45.20;;;;;;5134622;27;20037;-70
2022/04/24 07:30:34;;;;;;;2.60;1.60;;;15.70;45.20;;;;;;5115859;27;20039;-69
2022/04/24 07:33:00;;;;;;;2.00;1.80;;;15.70;45.10;;;;;;5115944;27;20050;-69
2022/04/24 07:35:28;;;;;;;1.90;1.25;;;15.70;45.10;;;;;;5115724;27;20039;-69
2022/04/24 07:37:55;;;;;;;1.27;1.10;;;15.80;45.10;;;;;;5116021;27;20042;-65
2022/04/24 07:40:22;;;;;;;2.13;1.48;;;15.80;45.10;;;;;;5115691;27;20050;-71
2022/04/24 07:48:11;;;;;;;1.73;1.15;;;15.90;45.10;;;;;;5146290;27;20548;-68
2022/04/24 07:50:50;;;;;;;2.47;1.77;;;15.80;45.10;;;;;;5128861;28;20039;-68
2022/04/24 07:53:17;;;;;;;2.28;1.60;;;15.80;45.10;;;;;;5129044;28;20050;-68
2022/04/24 07:55:44;;;;;;;1.63;1.48;;;15.90;45.20;;;;;;5128742;28;20114;-68
2022/04/24 07:58:10;;;;;;;3.45;1.90;;;15.90;45.10;;;;;;5129030;28;20070;-68
2022/04/24 08:00:37;;;;;;;1.67;1.38;;;15.90;45.10;;;;;;5128771;27;20054;-68
2022/04/24 08:03:08;;;;;;;2.20;1.27;;;15.80;45.10;;;;;;5128784;28;20072;-66
2022/04/24 08:05:36;;;;;;;2.72;1.55;;;15.90;45.20;;;;;;5128599;28;20486;-69
2022/04/24 08:08:04;;;;;;;3.20;1.30;;;15.90;45.10;;;;;;5128624;28;20107;-68
2022/04/24 08:10:33;;;;;;;2.78;1.45;;;15.80;45.20;;;;;;5128608;28;20039;-68
2022/04/24 08:12:59;;;;;;;1.20;1.02;;;15.80;45.20;;;;;;5128811;28;20118;-68
2022/04/24 08:15:25;;;;;;;2.63;1.38;;;15.90;45.30;;;;;;5128572;27;20040;-68
2022/04/24 08:17:51;;;;;;;2.05;1.20;;;15.90;45.30;;;;;;5129581;27;20046;-68
2022/04/24 08:20:17;;;;;;;2.22;1.15;;;15.90;45.30;;;;;;5128519;28;20467;-67
2022/04/24 08:22:48;;;;;;;1.60;1.15;;;15.90;45.30;;;;;;5128273;28;20514;-68
2022/04/24 08:25:17;;;;;;;1.58;1.15;;;15.90;45.30;;;;;;5128289;28;20043;-68
2022/04/24 08:27:43;;;;;;;2.10;1.05;;;15.90;45.30;;;;;;5128191;28;20055;-68
2022/04/24 08:30:11;;;;;;;3.53;1.40;;;15.90;45.30;;;;;;5128243;28;20050;-65
2022/04/24 08:32:39;;;;;;;2.08;1.25;;;15.90;45.30;;;;;;5129344;27;20047;-64
2022/04/24 08:35:06;;;;;;;1.90;1.10;;;15.90;45.30;;;;;;5128351;28;20047;-69
2022/04/24 08:37:33;;;;;;;1.60;0.95;;;15.90;45.20;;;;;;5128016;28;20050;-68
2022/04/24 08:39:58;;;;;;;1.95;0.90;;;16.00;45.20;;;;;;5128332;28;20058;-68
2022/04/24 08:42:25;;;;;;;2.10;0.82;;;16.00;45.10;;;;;;5127984;28;20474;-68
2022/04/24 08:44:51;;;;;;;1.60;1.00;;;16.00;45.00;;;;;;5129256;27;20097;-68
2022/04/24 08:47:19;;;;;;;2.70;1.17;;;16.00;45.00;;;;;;5128718;27;20090;-68
2022/04/24 08:49:45;;;;;;;2.38;0.93;;;16.00;45.00;;;;;;5145381;27;20051;-66
2022/04/24 08:52:14;;;;;;;1.17;0.73;;;16.10;45.10;;;;;;5129248;27;20032;-68
2022/04/24 08:54:41;;;;;;;1.85;1.10;;;16.10;45.00;;;;;;5128045;28;20430;-68
2022/04/24 08:57:11;;;;;;;1.48;0.90;;;16.20;45.10;;;;;;5128893;27;20044;-69
2022/04/24 08:59:40;;;;;;;1.73;1.33;;;16.30;45.10;;;;;;5114633;28;20051;-67
2022/04/24 09:02:06;;;;;;;1.60;0.70;;;16.30;44.80;;;;;;5115160;28;20099;-68
2022/04/24 09:04:34;;;;;;;2.92;1.00;;;16.40;44.50;;;;;;5113934;28;20040;-67
2022/04/24 09:07:02;;;;;;;1.48;0.60;;;16.50;44.10;;;;;;5115259;28;20426;-69
2022/04/24 09:09:29;;;;;;;1.50;0.75;;;16.60;43.90;;;;;;5113760;28;20031;-63
2022/04/24 09:12:21;;;;;;;1.00;0.60;;;16.80;43.70;;;;;;5113815;28;20539;-67
2022/04/24 09:14:48;;;;;;;2.38;0.60;;;16.90;43.40;;;;;;5115102;28;20035;-68
2022/04/24 09:17:19;;;;;;;1.48;0.55;;;17.10;43.10;;;;;;5113656;28;20474;-68
2022/04/24 09:19:45;;;;;;;2.38;0.50;;;17.20;42.80;;;;;;5113877;28;20047;-67
2022/04/24 09:22:12;;;;;;;1.30;0.90;;;17.30;42.60;;;;;;5113499;28;20044;-69
2022/04/24 09:24:55;;;;;;;1.92;0.40;;;17.30;42.40;;;;;;5113433;28;20566;-65
2022/04/24 09:27:26;;;;;;;0.90;0.50;;;17.40;42.30;;;;;;5113610;28;20040;-68
2022/04/24 09:29:57;;;;;;;0.98;0.70;;;17.50;42.10;;;;;;5113564;28;20451;-63
2022/04/24 09:32:24;;;;;;;2.90;0.73;;;17.60;42.00;;;;;;5113641;28;20043;-68
2022/04/24 09:34:51;;;;;;;1.58;0.40;;;17.70;41.80;;;;;;5113572;28;20040;-68
2022/04/24 09:37:17;;;;;;;1.08;0.60;;;17.80;41.60;;;;;;5113819;28;20092;-68
2022/04/24 09:39:44;;;;;;;2.17;0.70;;;17.90;41.50;;;;;;5113148;28;20047;-68
2022/04/24 09:42:12;;;;;;;1.00;0.50;;;17.90;41.40;;;;;;5114565;28;20077;-64
2022/04/24 09:44:43;;;;;;;1.55;0.68;;;18.00;41.30;;;;;;5113106;28;20048;-68
2022/04/24 09:47:10;;;;;;;1.25;0.45;;;18.00;41.10;;;;;;5112918;28;20082;-68
2022/04/24 09:49:39;;;;;;;1.83;0.63;;;18.10;41.00;;;;;;5112934;28;20047;-68
2022/04/24 09:52:24;;;;;;;0.90;0.40;;;18.20;41.00;;;;;;5114406;28;20044;-64
2022/04/24 09:54:52;;;;;;;2.05;0.55;;;18.20;41.00;;;;;;5112884;28;20553;-63
2022/04/24 09:57:21;;;;;;;1.60;0.50;;;18.20;40.80;;;;;;5113182;28;20391;-66
2022/04/24 09:59:48;;;;;;;1.60;0.40;;;18.20;40.80;;;;;;5114101;27;20516;-68
2022/04/24 10:02:17;;;;;;;1.35;0.50;;;18.20;40.70;;;;;;5113099;28;20040;-64
2022/04/24 10:04:44;;;;;;;1.38;0.70;;;18.20;40.70;;;;;;5112946;28;20076;-63
2022/04/24 10:07:11;;;;;;;1.17;0.50;;;18.30;40.70;;;;;;5112769;28;20403;-68
2022/04/24 10:09:40;;;;;;;1.80;0.50;;;18.30;40.80;;;;;;5111818;28;20105;-68
2022/04/24 10:12:08;;;;;;;1.13;0.47;;;18.30;40.70;;;;;;5113970;28;20044;-68
2022/04/24 10:14:44;;;;;;;1.55;0.60;;;18.30;40.70;;;;;;5112772;28;20084;-67
2022/04/24 10:17:21;;;;;;;0.90;0.40;;;18.20;40.70;;;;;;5112770;28;20066;-68
2022/04/24 10:19:59;;;;;;;1.13;0.55;;;18.30;40.70;;;;;;5112928;28;20046;-68
2022/04/24 10:25:14;;;;;;;1.10;0.40;;;18.20;40.80;;;;;;5146320;27;20155;-68
2022/04/24 10:27:42;;;;;;;1.55;0.40;;;18.20;40.80;;;;;;5146517;27;20047;-68
2022/04/24 10:30:13;;;;;;;0.68;0.52;;;18.20;40.80;;;;;;5129030;28;20043;-68
2022/04/24 10:32:39;;;;;;;;;;;18.20;40.80;;;;;;5129553;27;20502;-68
2022/04/24 10:35:18;;;;;;;1.30;0.65;;;18.20;41.00;;;;;;5128421;28;19916;-68
2022/04/24 10:37:45;;;;;;;2.60;0.50;;;18.20;41.00;;;;;;5129966;28;20171;-69
2022/04/24 10:40:14;;;;;;;2.45;0.47;;;18.10;40.80;;;;;;5129036;27;20364;-68
2022/04/24 10:42:43;;;;;;;0.90;0.47;;;18.10;40.90;;;;;;5129902;27;20031;-68
2022/04/24 10:50:28;;;;;;;0.60;0.30;;;18.10;41.00;;;;;;5146341;27;20135;-70
2022/04/24 10:52:55;;;;;;;0.82;0.65;;;18.00;41.00;;;;;;5129215;28;20039;-68
2022/04/24 10:55:25;;;;;;;1.20;0.40;;;18.10;41.10;;;;;;5128931;28;20080;-68
2022/04/24 10:57:57;;;;;;;0.60;0.40;;;18.00;41.10;;;;;;5128851;28;20039;-68
2022/04/24 11:00:30;;;;;;;1.25;0.40;;;18.00;41.20;;;;;;5129181;27;20047;-68
2022/04/24 11:03:06;;;;;;;1.05;0.60;;;18.00;41.20;;;;;;5128813;28;20117;-68
2022/04/24 11:05:36;;;;;;;1.15;0.50;;;17.90;41.20;;;;;;5128832;27;20054;-68
2022/04/24 11:08:05;;;;;;;0.95;0.30;;;18.00;41.30;;;;;;5128828;28;20092;-68
2022/04/24 11:10:38;;;;;;;0.88;0.30;;;17.90;41.30;;;;;;5128750;28;20047;-68
2022/04/24 11:13:04;;;;;;;1.20;0.40;;;17.90;41.40;;;;;;5128975;27;20050;-68
2022/04/24 11:15:30;;;;;;;1.50;0.50;;;17.80;41.50;;;;;;5130246;27;20134;-68
2022/04/24 11:17:55;;;;;;;1.65;0.47;;;17.80;41.50;;;;;;5128501;28;20035;-68
2022/04/24 11:20:27;;;;;;;0.95;0.40;;;17.80;41.50;;;;;;5129730;27;20042;-68
2022/04/24 11:22:55;;;;;;;1.15;0.68;;;17.80;41.50;;;;;;5129694;27;20058;-68
2022/04/24 11:25:22;;;;;;;1.38;0.40;;;17.80;41.60;;;;;;5128698;28;20382;-64
2022/04/24 11:27:51;;;;;;;0.90;0.40;;;17.80;41.50;;;;;;5129662;27;20087;-69
2022/04/24 11:30:20;;;;;;;1.50;0.30;;;17.80;41.50;;;;;;5128279;28;20050;-68
2022/04/24 11:33:05;;;;;;;0.75;0.40;;;17.70;41.40;;;;;;5129520;27;20036;-63
2022/04/24 11:35:36;;;;;;;1.08;0.45;;;17.80;41.50;;;;;;5128280;27;20043;-68
2022/04/24 11:38:03;;;;;;;1.92;0.40;;;17.80;41.50;;;;;;5128185;28;20491;-68
2022/04/24 11:40:30;;;;;;;1.25;0.40;;;17.80;41.50;;;;;;5128174;28;20063;-69
2022/04/24 11:43:04;;;;;;;1.25;0.40;;;17.80;41.50;;;;;;5129416;27;20099;-70
2022/04/24 11:51:14;;;;;;;0.68;0.30;;;17.70;41.50;;;;;;5127731;28;20043;-68
2022/04/24 11:53:40;;;;;;;1.05;0.30;;;17.70;41.50;;;;;;5127833;28;20039;-69
2022/04/24 11:56:06;;;;;;;0.98;0.40;;;17.80;41.50;;;;;;5110990;28;20087;-70
2022/04/24 12:01:13;;;;;;;0.75;0.43;;;17.80;41.50;;;;;;5129142;27;20135;-68
2022/04/24 12:03:43;;;;;;;1.02;0.40;;;17.80;41.50;;;;;;5146183;27;20043;-69
2022/04/24 12:06:11;;;;;;;1.48;0.30;;;17.80;41.60;;;;;;5129256;28;20062;-67
2022/04/24 12:11:30;;;;;;;0.95;0.40;;;17.80;41.60;;;;;;5129375;27;20155;-68
2022/04/24 12:14:02;;;;;;;1.00;0.40;;;17.80;41.50;;;;;;5129226;28;20367;-68
2022/04/24 12:16:28;;;;;;;1.65;0.30;;;17.80;41.50;;;;;;5129013;28;20365;-68
2022/04/24 12:18:56;;;;;;;0.93;0.40;;;17.80;41.50;;;;;;5128848;28;20510;-68
2022/04/24 12:21:22;;;;;;;1.35;0.30;;;17.80;41.60;;;;;;5129063;28;20035;-69
2022/04/24 12:23:50;;;;;;;0.60;0.28;;;17.70;41.50;;;;;;5128980;28;20490;-68
2022/04/24 12:26:16;;;;;;;0.90;0.40;;;17.70;41.50;;;;;;5128792;28;20075;-64
2022/04/24 12:28:41;;;;;;;0.60;0.20;;;17.80;41.50;;;;;;5114936;28;20081;-64
2022/04/24 12:31:20;;;;;;;1.05;0.35;;;17.70;41.40;;;;;;5109406;28;20042;-67
2022/04/24 12:33:48;;;;;;;1.67;0.40;;;17.70;41.40;;;;;;5108528;28;20058;-68
2022/04/24 12:36:15;;;;;;;0.93;0.50;;;17.70;41.40;;;;;;5109276;28;20044;-68
2022/04/24 12:41:37;;;;;;;0.88;0.30;;;17.80;41.40;;;;;;5129009;27;20132;-68
2022/04/24 12:44:05;;;;;;;1.10;0.40;;;17.80;41.40;;;;;;5130311;27;20375;-63
2022/04/24 12:46:31;;;;;;;0.68;0.30;;;17.80;41.40;;;;;;5128808;28;20330;-69
2022/04/24 12:49:02;;;;;;;0.73;0.30;;;17.80;41.40;;;;;;5128943;28;20492;-69
2022/04/24 12:51:27;;;;;;;0.60;0.30;;;17.80;41.30;;;;;;5129125;28;20042;-68
2022/04/24 12:53:54;;;;;;;0.77;0.30;;;17.80;41.30;;;;;;5128793;28;20031;-68
2022/04/24 12:56:20;;;;;;;0.60;0.30;;;17.90;41.30;;;;;;5128770;28;20545;-68
2022/04/24 12:58:47;;;;;;;0.60;0.20;;;17.90;41.30;;;;;;5128994;28;20131;-68
2022/04/24 13:01:13;;;;;;;1.95;0.40;;;17.90;41.30;;;;;;5128562;28;20093;-68
2022/04/24 13:03:40;;;;;;;0.55;0.20;;;17.90;41.20;;;;;;5128960;28;20040;-69
2022/04/24 13:06:08;;;;;;;0.73;0.30;;;17.90;41.10;;;;;;5130083;27;20050;-69
2022/04/24 13:08:34;;;;;;;0.60;0.30;;;17.90;41.10;;;;;;5128578;28;20398;-68
2022/04/24 13:11:00;;;;;;;0.90;0.75;;;17.90;41.10;;;;;;5128479;28;20039;-69
2022/04/24 13:13:28;;;;;;;1.13;0.40;;;17.90;41.10;;;;;;5128739;28;20281;-68
2022/04/24 13:18:39;;;;;;;0.52;0.20;;;17.90;41.20;;;;;;5128415;28;20039;-68